createdAt,value
2022-08-07T00:00:26.755Z,99875.42
2022-08-07T00:03:10.386Z,99872.34
2022-08-07T00:05:39.589Z,99874.46
2022-08-07T00:08:10.840Z,99874.63
2022-08-07T00:10:48.360Z,99873.38
2022-08-07T00:13:26.805Z,99874.45
2022-08-07T00:15:56.206Z,99874.21
2022-08-07T00:18:28.882Z,99876.20
2022-08-07T00:21:03.434Z,99877.45
2022-08-07T00:23:39.590Z,99879.89
2022-08-07T00:26:31.435Z,99880.72
2022-08-07T00:29:01.510Z,99879.33
2022-08-07T00:31:37.576Z,99878.46
2022-08-07T00:34:09.121Z,99882.32
2022-08-07T00:36:43.244Z,99879.91
2022-08-07T00:39:16.879Z,99880.66
2022-08-07T00:42:02.307Z,99881.48
2022-08-07T00:44:34.954Z,99883.52
2022-08-07T00:47:16.150Z,99881.19
2022-08-07T00:50:20.545Z,99879.41
2022-08-07T00:52:47.518Z,99880.41
2022-08-07T00:55:17.473Z,99877.24
2022-08-07T00:57:55.361Z,99879.23
2022-08-07T01:00:25.297Z,99881.05
2022-08-07T01:03:56.827Z,99884.21
2022-08-07T01:06:29.760Z,99885.54
2022-08-07T01:09:01.227Z,99887.70
2022-08-07T01:12:23.837Z,99886.58
2022-08-07T01:14:28.371Z,99889.26
2022-08-07T01:16:58.143Z,99888.93
2022-08-07T01:19:32.407Z,99888.13
2022-08-07T01:22:03.471Z,99889.05
2022-08-07T01:24:42.088Z,99889.42
2022-08-07T01:27:19.333Z,99882.86
2022-08-07T01:29:50.669Z,99879.05
2022-08-07T01:32:22.609Z,99881.46
2022-08-07T01:34:54.864Z,99879.91
2022-08-07T01:37:24.680Z,99880.30
2022-08-07T01:40:02.443Z,99877.02
2022-08-07T01:42:38.231Z,99874.34
2022-08-07T01:45:18.146Z,99875.05
2022-08-07T01:48:17.626Z,99880.95
2022-08-07T01:50:47.758Z,99882.30
2022-08-07T01:54:09.314Z,99877.79
2022-08-07T01:56:16.530Z,99880.98
2022-08-07T01:58:54.489Z,99880.23
2022-08-07T02:01:59.897Z,99885.26
2022-08-07T02:04:32.868Z,99886.57
2022-08-07T02:07:07.651Z,99886.41
2022-08-07T02:09:52.731Z,99883.18
2022-08-07T02:12:30.887Z,99883.19
2022-08-07T02:15:06.038Z,99882.77
2022-08-07T02:17:49.586Z,99883.95
2022-08-07T02:20:23.864Z,99886.06
2022-08-07T02:22:59.874Z,99885.77
2022-08-07T02:26:10.519Z,99887.98
2022-08-07T02:28:24.600Z,99891.39
2022-08-07T02:30:57.480Z,99895.23
2022-08-07T02:33:42.045Z,99895.40
2022-08-07T02:36:30.296Z,99900.74
2022-08-07T02:39:16.400Z,99901.20
2022-08-07T02:41:54.368Z,99903.70
2022-08-07T02:44:27.638Z,99904.00
2022-08-07T02:47:02.949Z,99902.79
2022-08-07T02:49:58.592Z,99904.45
2022-08-07T02:52:35.026Z,99904.29
2022-08-07T02:55:27.967Z,99903.55
2022-08-07T02:58:07.114Z,99904.96
2022-08-07T03:00:40.899Z,99905.70
2022-08-07T03:03:21.056Z,99909.48
2022-08-07T03:05:53.814Z,99907.78
2022-08-07T03:08:26.782Z,99910.80
2022-08-07T03:11:02.615Z,99909.26
2022-08-07T03:13:49.976Z,99909.42
2022-08-07T03:16:22.861Z,99908.64
2022-08-07T03:18:57.093Z,99910.34
2022-08-07T03:21:26.927Z,99912.98
2022-08-07T03:24:20.116Z,99918.23
2022-08-07T03:26:57.930Z,99920.82
2022-08-07T03:29:39.841Z,99920.11
2022-08-07T03:32:48.927Z,99913.72
2022-08-07T03:35:26.084Z,99913.88
2022-08-07T03:37:59.368Z,99912.63
2022-08-07T03:40:36.198Z,99915.67
2022-08-07T03:43:13.629Z,99913.00
2022-08-07T03:45:47.468Z,99912.70
2022-08-07T03:48:17.272Z,99912.98
2022-08-07T03:50:55.992Z,99915.65
2022-08-07T03:54:05.666Z,99921.06
2022-08-07T03:56:33.011Z,99919.61
2022-08-07T03:59:09.925Z,99924.50
2022-08-07T04:01:46.433Z,99924.40
2022-08-07T04:04:18.388Z,99923.71
2022-08-07T04:06:51.729Z,99931.39
2022-08-07T04:09:23.012Z,99937.40
2022-08-07T04:12:21.312Z,99939.89
2022-08-07T04:14:46.297Z,99936.20
2022-08-07T04:17:21.212Z,99939.02
2022-08-07T04:19:55.472Z,99939.75
2022-08-07T04:22:30.058Z,99938.65
2022-08-07T04:25:08.839Z,99934.63
2022-08-07T04:27:45.935Z,99933.64
2022-08-07T04:30:36.061Z,99932.93
2022-08-07T04:33:18.046Z,99929.61
2022-08-07T04:35:50.519Z,99930.62
2022-08-07T04:38:23.056Z,99926.99
2022-08-07T04:40:53.211Z,99929.60
2022-08-07T04:44:14.589Z,99926.15
2022-08-07T04:47:05.022Z,99929.90
2022-08-07T04:50:03.560Z,99931.20
2022-08-07T04:53:07.565Z,99936.25
2022-08-07T04:58:12.970Z,99933.64
2022-08-07T04:59:16.900Z,99935.08
2022-08-07T05:01:55.667Z,99934.02
2022-08-07T05:04:43.998Z,99934.80
2022-08-07T05:07:23.314Z,99941.58
2022-08-07T05:10:16.688Z,99939.17
2022-08-07T05:12:56.225Z,99945.48
2022-08-07T05:15:37.859Z,99946.17
2022-08-07T05:18:13.386Z,99947.69
2022-08-07T05:20:48.155Z,99949.77
2022-08-07T05:23:29.917Z,99951.59
2022-08-07T05:26:13.678Z,99952.09
2022-08-07T05:28:51.567Z,99954.89
2022-08-07T05:31:35.261Z,99957.38
2022-08-07T05:34:11.204Z,99956.33
2022-08-07T05:36:53.188Z,99956.36
2022-08-07T05:40:13.596Z,99958.02
2022-08-07T05:42:34.269Z,99962.80
2022-08-07T05:45:26.313Z,99964.84
2022-08-07T05:48:03.186Z,99967.96
2022-08-07T05:50:42.886Z,99969.73
2022-08-07T05:54:12.867Z,99972.03
2022-08-07T05:56:06.153Z,99968.71
2022-08-07T05:58:49.292Z,99965.40
2022-08-07T06:01:23.116Z,99965.21
2022-08-07T06:03:58.863Z,99967.39
2022-08-07T06:06:34.422Z,99971.95
2022-08-07T06:09:05.474Z,99973.42
2022-08-07T06:11:38.639Z,99977.26
2022-08-07T06:14:12.923Z,99981.09
2022-08-07T06:16:55.987Z,99978.30
2022-08-07T06:19:51.775Z,99983.16
2022-08-07T06:22:24.156Z,99982.05
2022-08-07T06:25:03.625Z,99983.70
2022-08-07T06:27:59.734Z,99984.14
2022-08-07T06:30:37.950Z,99985.67
2022-08-07T06:33:16.576Z,99987.27
2022-08-07T06:36:12.777Z,99986.86
2022-08-07T06:38:58.581Z,99988.55
2022-08-07T06:42:02.066Z,99991.27
2022-08-07T06:45:11.237Z,99995.21
2022-08-07T06:47:57.533Z,99995.34
2022-08-07T06:50:43.061Z,99996.55
2022-08-07T06:53:18.796Z,100004.65
2022-08-07T06:56:14.877Z,100005.02
2022-08-07T07:00:13.124Z,100002.48
2022-08-07T07:01:42.134Z,100001.65
2022-08-07T07:04:28.366Z,100001.52
2022-08-07T07:07:10.827Z,100007.79
2022-08-07T07:09:54.591Z,100003.05
2022-08-07T07:12:31.067Z,100008.91
2022-08-07T07:15:23.902Z,100011.02
2022-08-07T07:17:58.108Z,100012.60
2022-08-07T07:20:37.198Z,100010.86
2022-08-07T07:24:08.317Z,100006.03
2022-08-07T07:26:34.801Z,100005.45
2022-08-07T07:29:56.858Z,100003.88
2022-08-07T07:31:51.145Z,100003.63
2022-08-07T07:34:30.882Z,100003.36
2022-08-07T07:37:05.487Z,100000.58
2022-08-07T07:39:55.288Z,99999.80
2022-08-07T07:42:33.070Z,99997.52
2022-08-07T07:45:04.516Z,100000.09
2022-08-07T07:47:51.842Z,100000.75
2022-08-07T07:50:33.945Z,100001.41
2022-08-07T07:53:20.132Z,100006.95
2022-08-07T07:56:00.427Z,100005.52
2022-08-07T07:58:36.928Z,100003.71
2022-08-07T08:02:01.775Z,100006.67
2022-08-07T08:04:10.773Z,100010.31
2022-08-07T08:06:50.863Z,100000.36
2022-08-07T08:09:29.180Z,100003.34
2022-08-07T08:12:03.006Z,99999.92
2022-08-07T08:14:37.069Z,99997.54
2022-08-07T08:17:55.362Z,100002.00
2022-08-07T08:20:18.006Z,99999.45
2022-08-07T08:23:11.327Z,99993.61
2022-08-07T08:26:03.416Z,99998.04
2022-08-07T08:28:39.832Z,100005.02
2022-08-07T08:31:30.103Z,99999.17
2022-08-07T08:34:12.407Z,99997.61
2022-08-07T08:36:56.185Z,99996.38
2022-08-07T08:39:38.961Z,99996.33
2022-08-07T08:42:27.884Z,99991.85
2022-08-07T08:45:19.942Z,99992.80
2022-08-07T08:48:06.809Z,99985.32
2022-08-07T08:50:54.598Z,99992.45
2022-08-07T08:53:45.954Z,99993.02
2022-08-07T08:56:24.654Z,99996.73
2022-08-07T08:59:02.365Z,99996.84
2022-08-07T09:01:49.122Z,99999.17
2022-08-07T09:04:54.226Z,99996.06
2022-08-07T09:07:46.245Z,99996.64
2022-08-07T09:10:46.501Z,99996.23
2022-08-07T09:13:43.528Z,99992.27
2022-08-07T09:16:35.382Z,99994.29
2022-08-07T09:19:53.691Z,99993.56
2022-08-07T09:24:29.233Z,99992.73
2022-08-07T09:25:27.982Z,99987.06
2022-08-07T09:28:05.302Z,99980.95
2022-08-07T09:31:20.701Z,99977.52
2022-08-07T09:33:57.357Z,99978.67
2022-08-07T09:36:36.972Z,99977.04
2022-08-07T09:39:52.888Z,99969.23
2022-08-07T09:42:46.409Z,99967.27
2022-08-07T09:47:55.631Z,99966.36
2022-08-07T09:50:01.015Z,99968.05
2022-08-07T09:52:33.880Z,99962.02
2022-08-07T09:56:03.695Z,99957.68
2022-08-07T09:59:07.849Z,99952.36
2022-08-07T10:02:13.496Z,99955.20
2022-08-07T10:04:58.834Z,99951.73
2022-08-07T10:08:13.856Z,99943.98
2022-08-07T10:11:59.222Z,99946.41
2022-08-07T10:14:01.992Z,99946.77
2022-08-07T10:17:13.368Z,99940.86
2022-08-07T10:20:45.569Z,99939.88
2022-08-07T10:24:05.047Z,99939.21
2022-08-07T10:26:51.785Z,99940.33
2022-08-07T10:29:59.396Z,99940.75
2022-08-07T10:34:06.854Z,99936.86
2022-08-07T10:36:17.283Z,99937.61
2022-08-07T10:39:09.010Z,99934.13
2022-08-07T10:41:54.752Z,99936.19
2022-08-07T10:44:45.136Z,99934.45
2022-08-07T10:47:52.804Z,99928.08
2022-08-07T10:50:26.633Z,99917.11
2022-08-07T10:53:10.615Z,99913.91
2022-08-07T10:55:45.508Z,99908.10
2022-08-07T10:58:41.446Z,99904.23
2022-08-07T11:01:35.289Z,99899.73
2022-08-07T11:04:32.206Z,99900.10
2022-08-07T11:07:58.923Z,99897.84
2022-08-07T11:10:27.317Z,99896.98
2022-08-07T11:14:44.102Z,99897.04
2022-08-07T11:16:46.951Z,99895.02
2022-08-07T11:19:27.793Z,99896.34
2022-08-07T11:22:32.487Z,99891.55
2022-08-07T11:25:26.446Z,99890.08
2022-08-07T11:28:04.882Z,99889.61
2022-08-07T11:30:43.246Z,99884.39
2022-08-07T11:33:53.614Z,99886.55
2022-08-07T11:36:32.634Z,99886.58
2022-08-07T11:39:39.719Z,99890.27
2022-08-07T11:42:29.794Z,99887.49
2022-08-07T11:45:35.445Z,99885.37
2022-08-07T11:48:29.238Z,99881.36
2022-08-07T11:51:41.157Z,99877.48
2022-08-07T11:54:37.685Z,99870.48
2022-08-07T11:57:20.737Z,99872.92
2022-08-07T12:00:19.337Z,99869.17
2022-08-07T12:03:41.403Z,99871.59
2022-08-07T12:06:36.987Z,99872.85
2022-08-07T12:09:33.237Z,99873.29
2022-08-07T12:12:14.088Z,99870.83
2022-08-07T12:14:55.371Z,99868.25
2022-08-07T12:17:58.847Z,99872.78
2022-08-07T12:20:43.148Z,99865.79
2022-08-07T12:24:06.808Z,99864.54
2022-08-07T12:27:03.475Z,99856.91
2022-08-07T12:29:59.018Z,99852.08
2022-08-07T12:32:51.650Z,99852.02
2022-08-07T12:35:24.051Z,99852.63
2022-08-07T12:38:09.509Z,99849.40
2022-08-07T12:40:47.794Z,99845.09
2022-08-07T12:44:02.193Z,99843.13
2022-08-07T12:46:26.647Z,99842.30
2022-08-07T12:49:10.178Z,99842.35
2022-08-07T12:52:23.518Z,99838.37
2022-08-07T12:55:18.268Z,99832.48
2022-08-07T12:58:01.118Z,99828.40
2022-08-07T13:01:01.083Z,99829.08
2022-08-07T13:04:05.232Z,99829.99
2022-08-07T13:07:01.117Z,99826.72
2022-08-07T13:10:36.717Z,99826.90
2022-08-07T13:13:10.941Z,99822.67
2022-08-07T13:15:56.086Z,99822.89
2022-08-07T13:18:51.876Z,99825.27
2022-08-07T13:21:57.494Z,99820.39
2022-08-07T13:24:43.962Z,99817.85
2022-08-07T13:27:33.309Z,99818.84
2022-08-07T13:30:40.600Z,99815.45
2022-08-07T13:33:16.460Z,99811.16
2022-08-07T13:36:17.780Z,99803.10
2022-08-07T13:40:33.517Z,99801.98
2022-08-07T13:42:39.690Z,99800.70
2022-08-07T13:46:06.091Z,99797.02
2022-08-07T13:48:07.575Z,99798.91
2022-08-07T13:50:44.866Z,99794.10
2022-08-07T13:53:35.961Z,99794.88
2022-08-07T13:56:36.389Z,99789.37
2022-08-07T13:59:13.979Z,99783.87
2022-08-07T14:02:04.137Z,99781.98
2022-08-07T14:04:49.944Z,99777.91
2022-08-07T14:07:25.971Z,99774.18
2022-08-07T14:10:02.227Z,99774.05
2022-08-07T14:13:00.458Z,99771.53
2022-08-07T14:15:35.174Z,99772.23
2022-08-07T14:18:24.493Z,99767.77
2022-08-07T14:21:20.639Z,99767.92
2022-08-07T14:24:06.163Z,99766.19
2022-08-07T14:26:57.923Z,99762.98
2022-08-07T14:30:09.765Z,99767.17
2022-08-07T14:32:26.949Z,99764.80
2022-08-07T14:34:55.958Z,99762.61
2022-08-07T14:37:36.234Z,99757.60
2022-08-07T14:40:25.703Z,99757.38
2022-08-07T14:43:58.983Z,99754.66
2022-08-07T14:46:11.450Z,99751.23
2022-08-07T14:48:48.406Z,99750.07
2022-08-07T14:54:33.028Z,99748.41
2022-08-07T14:57:09.441Z,99747.34
2022-08-07T15:00:03.463Z,99743.97
2022-08-07T15:02:39.249Z,99743.26
2022-08-07T15:05:19.820Z,99736.75
2022-08-07T15:07:52.314Z,99740.02
2022-08-07T15:10:29.903Z,99741.20
2022-08-07T15:13:11.585Z,99737.88
2022-08-07T15:15:52.664Z,99733.64
2022-08-07T15:18:47.644Z,99730.25
2022-08-07T15:30:17.041Z,99727.87
2022-08-07T15:33:01.268Z,99722.30
2022-08-07T15:36:01.490Z,99718.98
2022-08-07T15:38:51.243Z,99720.16
2022-08-07T15:42:43.799Z,99720.94
2022-08-07T15:44:21.048Z,99719.02
2022-08-07T15:47:08.988Z,99714.86
2022-08-07T15:52:39.210Z,99715.92
2022-08-07T15:55:13.230Z,99714.77
2022-08-07T15:57:49.136Z,99708.49
2022-08-07T16:00:31.767Z,99701.62
2022-08-07T16:03:20.566Z,99706.14
2022-08-07T16:05:52.821Z,99708.42
2022-08-07T16:08:30.579Z,99708.39
2022-08-07T16:11:27.171Z,99710.15
2022-08-07T16:14:05.683Z,99707.90
2022-08-07T16:17:15.180Z,99705.63
2022-08-07T16:20:06.864Z,99706.86
2022-08-07T16:22:55.118Z,99708.40
2022-08-07T16:25:52.227Z,99707.45
2022-08-07T16:30:05.457Z,99705.34
2022-08-07T16:31:51.754Z,99706.76
2022-08-07T16:34:45.286Z,99705.52
2022-08-07T16:38:04.006Z,99704.38
2022-08-07T16:40:30.826Z,99705.41
2022-08-07T16:43:09.147Z,99704.88
2022-08-07T16:50:29.244Z,99704.77
2022-08-07T16:52:51.604Z,99708.56
2022-08-07T16:55:18.549Z,99709.02
2022-08-07T16:58:02.576Z,99711.27
2022-08-07T17:00:41.584Z,99713.73
2022-08-07T17:03:19.645Z,99713.75
2022-08-07T17:06:31.536Z,99714.68
2022-08-07T17:09:14.183Z,99715.98
2022-08-07T17:12:04.578Z,99714.78
2022-08-07T17:14:56.496Z,99717.12
2022-08-07T17:17:27.125Z,99719.02
2022-08-07T17:20:30.963Z,99722.65
2022-08-07T17:23:20.384Z,99726.34
2022-08-07T17:25:52.497Z,99727.03
2022-08-07T17:28:38.269Z,99731.19
2022-08-07T17:31:25.794Z,99735.30
2022-08-07T17:34:34.204Z,99733.32
2022-08-07T17:37:09.704Z,99733.52
2022-08-07T17:40:08.726Z,99730.98
2022-08-07T17:42:58.312Z,99734.42
2022-08-07T17:45:35.156Z,99737.31
2022-08-07T17:48:12.956Z,99736.34
2022-08-07T17:50:42.560Z,99733.23
2022-08-07T17:54:01.377Z,99736.41
2022-08-07T17:56:33.179Z,99737.98
2022-08-07T17:59:10.914Z,99735.41
2022-08-07T18:02:14.662Z,99738.77
2022-08-07T18:05:21.079Z,99738.36
2022-08-07T18:08:24.305Z,99736.54
2022-08-07T18:12:07.605Z,99735.01
2022-08-07T18:14:01.864Z,99738.77
2022-08-07T18:16:57.734Z,99739.09
2022-08-07T18:21:05.802Z,99737.98
2022-08-07T18:22:48.908Z,99737.17
2022-08-07T18:25:40.254Z,99738.08
2022-08-07T18:28:35.391Z,99745.36
2022-08-07T18:31:07.550Z,99747.30
2022-08-07T18:33:58.400Z,99748.77
2022-08-07T18:37:09.272Z,99757.17
2022-08-07T18:40:38.788Z,99760.14
2022-08-07T18:43:06.766Z,99763.02
2022-08-07T18:46:25.978Z,99768.20
2022-08-07T18:50:30.174Z,99766.28
2022-08-07T18:52:35.228Z,99769.20
2022-08-07T18:55:42.086Z,99766.98
2022-08-07T18:58:30.069Z,99765.17
2022-08-07T19:01:02.672Z,99767.38
2022-08-07T19:04:00.191Z,99771.14
2022-08-07T19:06:55.621Z,99772.67
2022-08-07T19:09:57.189Z,99777.37
2022-08-07T19:12:28.456Z,99773.50
2022-08-07T19:16:05.362Z,99774.51
2022-08-07T19:18:34.712Z,99772.92
2022-08-07T19:21:47.444Z,99776.66
2022-08-07T19:24:30.496Z,99775.85
2022-08-07T19:28:30.669Z,99775.63
2022-08-07T19:31:05.751Z,99778.48
2022-08-07T19:32:59.140Z,99777.27
2022-08-07T19:35:33.191Z,99779.44
2022-08-07T19:38:16.692Z,99777.38
2022-08-07T19:40:50.675Z,99781.27
2022-08-07T19:43:48.860Z,99782.09
2022-08-07T19:46:26.556Z,99781.31
2022-08-07T19:49:07.041Z,99784.59
2022-08-07T19:51:52.499Z,99784.52
2022-08-07T19:54:32.448Z,99783.70
2022-08-07T19:58:02.804Z,99786.19
2022-08-07T20:00:32.197Z,99786.64
2022-08-07T20:03:33.636Z,99783.46
2022-08-07T20:06:15.249Z,99786.02
2022-08-07T20:09:01.961Z,99784.54
2022-08-07T20:12:00.816Z,99782.25
2022-08-07T20:14:32.946Z,99782.90
2022-08-07T20:17:06.231Z,99785.84
2022-08-07T20:19:47.919Z,99791.48
2022-08-07T20:22:29.124Z,99791.18
2022-08-07T20:25:12.953Z,99786.41
2022-08-07T20:27:54.333Z,99788.48
2022-08-07T20:30:36.786Z,99787.55
2022-08-07T20:33:08.940Z,99783.80
2022-08-07T20:36:01.364Z,99782.88
2022-08-07T20:38:33.989Z,99781.06
2022-08-07T20:41:05.545Z,99779.04
2022-08-07T20:43:47.524Z,99775.75
2022-08-07T20:46:26.777Z,99778.93
2022-08-07T20:49:58.389Z,99777.79
2022-08-07T20:51:51.125Z,99781.66
2022-08-07T20:54:29.353Z,99781.86
2022-08-07T20:57:06.952Z,99784.54
2022-08-07T21:00:08.251Z,99781.95
2022-08-07T21:02:54.098Z,99784.00
2022-08-07T21:05:56.329Z,99779.61
2022-08-07T21:08:51.496Z,99773.54
2022-08-07T21:11:28.847Z,99767.59
2022-08-07T21:14:31.931Z,99769.51
2022-08-07T21:18:09.078Z,99765.77
2022-08-07T21:20:09.935Z,99771.42
2022-08-07T21:22:44.782Z,99772.40
2022-08-07T21:25:20.130Z,99771.27
2022-08-07T21:28:16.627Z,99772.80
2022-08-07T21:31:06.755Z,99771.16
2022-08-07T21:34:03.088Z,99773.41
2022-08-07T21:36:50.019Z,99776.29
2022-08-07T21:39:46.757Z,99775.38
2022-08-07T21:42:42.879Z,99775.30
2022-08-07T21:45:42.139Z,99773.91
2022-08-07T21:48:33.294Z,99777.09
2022-08-07T21:51:32.039Z,99778.31
2022-08-07T21:54:18.686Z,99779.46
2022-08-07T21:57:04.723Z,99775.72
2022-08-07T22:00:02.741Z,99777.40
2022-08-07T22:03:00.240Z,99777.33
2022-08-07T22:05:44.594Z,99781.86
2022-08-07T22:08:19.680Z,99780.35
2022-08-07T22:10:53.945Z,99782.58
2022-08-07T22:13:52.190Z,99780.91
2022-08-07T22:16:38.652Z,99782.50
2022-08-07T22:19:30.801Z,99784.33
2022-08-07T22:22:21.310Z,99788.02
2022-08-07T22:25:36.237Z,99783.15
2022-08-07T22:28:31.090Z,99784.00
2022-08-07T22:31:10.141Z,99780.70
2022-08-07T22:33:56.665Z,99780.96
2022-08-07T22:36:53.230Z,99782.13
2022-08-07T22:39:35.448Z,99781.83
2022-08-07T22:42:29.374Z,99784.68
2022-08-07T22:45:02.222Z,99784.44
2022-08-07T22:47:40.087Z,99787.98
2022-08-07T22:50:08.666Z,99786.77
2022-08-07T22:52:39.950Z,99788.98
2022-08-07T22:55:30.177Z,99788.70
2022-08-07T22:58:28.208Z,99789.87
2022-08-07T23:01:42.011Z,99789.76
2022-08-07T23:06:04.794Z,99794.27
2022-08-07T23:07:53.200Z,99795.73
2022-08-07T23:10:45.279Z,99791.45
2022-08-07T23:13:48.929Z,99788.58
2022-08-07T23:17:02.479Z,99787.11
2022-08-07T23:30:36.977Z,99784.06
2022-08-07T23:34:22.553Z,99786.54
2022-08-07T23:37:18.939Z,99788.64
2022-08-07T23:40:01.148Z,99784.90
2022-08-07T23:42:38.698Z,99782.93
2022-08-07T23:46:01.825Z,99783.16
2022-08-07T23:48:51.253Z,99779.21
2022-08-07T23:53:06.514Z,99778.85
2022-08-07T23:55:09.662Z,99780.84
2022-08-07T23:57:44.590Z,99778.36
